createdAt,value
2023-02-23T00:02:07.305Z,17.55
2023-02-23T00:04:35.456Z,18.40
2023-02-23T00:07:02.986Z,19.73
2023-02-23T00:09:35.316Z,19.53
2023-02-23T00:12:09.556Z,20.50
2023-02-23T00:14:38.251Z,19.80
2023-02-23T00:17:14.184Z,20.13
2023-02-23T00:19:43.562Z,19.63
2023-02-23T00:22:10.884Z,19.30
2023-02-23T00:24:38.852Z,20.47
2023-02-23T00:27:06.783Z,21.07
2023-02-23T00:29:40.005Z,21.40
2023-02-23T00:32:08.073Z,21.97
2023-02-23T00:34:36.666Z,21.00
2023-02-23T00:37:03.426Z,20.97
2023-02-23T00:39:30.209Z,19.98
2023-02-23T00:42:02.483Z,19.47
2023-02-23T00:44:30.192Z,19.60
2023-02-23T00:46:56.956Z,18.52
2023-02-23T00:49:23.904Z,19.07
2023-02-23T00:51:52.174Z,19.63
2023-02-23T00:54:21.431Z,21.47
2023-02-23T00:56:49.327Z,19.70
2023-02-23T00:59:16.739Z,19.47
2023-02-23T01:01:44.275Z,19.30
2023-02-23T01:04:12.568Z,19.98
2023-02-23T01:06:41.607Z,20.00
2023-02-23T01:09:21.918Z,19.37
2023-02-23T01:11:48.804Z,19.87
2023-02-23T01:14:15.869Z,18.77
2023-02-23T01:16:42.712Z,18.27
2023-02-23T01:19:10.540Z,18.73
2023-02-23T01:21:42.008Z,18.53
2023-02-23T01:24:09.373Z,19.37
2023-02-23T01:26:43.956Z,19.50
2023-02-23T01:29:17.391Z,19.53
2023-02-23T01:31:48.399Z,19.52
2023-02-23T01:34:15.757Z,18.93
2023-02-23T01:36:44.652Z,17.47
2023-02-23T01:39:20.992Z,18.50
2023-02-23T01:41:51.710Z,19.13
2023-02-23T01:44:18.429Z,19.50
2023-02-23T01:46:47.489Z,18.30
2023-02-23T01:49:22.049Z,19.33
2023-02-23T01:52:13.212Z,17.85
2023-02-23T01:54:54.994Z,18.00
2023-02-23T01:57:25.118Z,19.23
2023-02-23T01:59:52.627Z,17.90
2023-02-23T02:02:27.598Z,17.08
2023-02-23T02:04:56.398Z,17.87
2023-02-23T02:07:29.022Z,18.47
2023-02-23T02:10:21.982Z,18.50
2023-02-23T02:12:56.915Z,18.00
2023-02-23T02:15:33.086Z,18.90
2023-02-23T02:18:38.106Z,17.65
2023-02-23T02:21:46.945Z,18.67
2023-02-23T02:24:38.764Z,17.57
2023-02-23T02:27:26.488Z,16.77
2023-02-23T02:30:40.450Z,17.10
2023-02-23T02:33:32.148Z,18.52
2023-02-23T02:36:18.710Z,19.97
2023-02-23T02:39:23.934Z,19.33
2023-02-23T02:42:15.754Z,19.65
2023-02-23T02:45:02.828Z,19.27
2023-02-23T02:48:04.765Z,20.10
2023-02-23T02:50:50.666Z,19.80
2023-02-23T02:53:37.759Z,19.60
2023-02-23T02:56:07.341Z,18.60
2023-02-23T02:58:35.859Z,19.17
2023-02-23T03:01:32.935Z,19.93
2023-02-23T03:04:37.652Z,18.27
2023-02-23T03:07:50.230Z,17.42
2023-02-23T03:11:06.451Z,19.47
2023-02-23T03:14:12.649Z,18.73
2023-02-23T03:17:24.318Z,21.23
2023-02-23T03:20:29.495Z,20.33
2023-02-23T03:23:39.330Z,19.87
2023-02-23T03:26:46.161Z,19.70
2023-02-23T03:30:08.548Z,19.53
2023-02-23T03:33:10.893Z,20.13
2023-02-23T03:36:02.309Z,19.17
2023-02-23T03:39:11.614Z,20.23
2023-02-23T03:42:02.921Z,19.30
2023-02-23T03:45:04.476Z,19.37
2023-02-23T03:47:56.307Z,18.80
2023-02-23T03:50:59.200Z,20.13
2023-02-23T03:53:56.901Z,21.27
2023-02-23T03:56:46.855Z,20.40
2023-02-23T03:59:37.297Z,19.97
2023-02-23T04:02:26.555Z,19.43
2023-02-23T04:05:20.835Z,19.83
2023-02-23T04:08:10.462Z,19.88
2023-02-23T04:11:07.484Z,20.17
2023-02-23T04:13:38.597Z,20.57
2023-02-23T04:16:11.415Z,19.20
2023-02-23T04:18:39.766Z,20.17
2023-02-23T04:21:07.606Z,20.20
2023-02-23T04:23:37.925Z,20.67
2023-02-23T04:26:05.140Z,20.07
2023-02-23T04:28:32.056Z,19.93
2023-02-23T04:30:58.939Z,20.97
2023-02-23T04:33:27.152Z,21.77
2023-02-23T04:35:54.922Z,20.67
2023-02-23T04:38:23.091Z,21.60
2023-02-23T04:40:50.933Z,22.00
2023-02-23T04:43:17.709Z,23.77
2023-02-23T04:45:44.912Z,22.88
2023-02-23T04:48:11.738Z,20.50
2023-02-23T04:50:39.592Z,19.77
2023-02-23T04:53:06.526Z,20.80
2023-02-23T04:55:33.526Z,20.95
2023-02-23T04:58:02.208Z,21.13
2023-02-23T05:00:29.904Z,21.67
2023-02-23T05:02:58.095Z,21.63
2023-02-23T05:05:25.331Z,21.40
2023-02-23T05:07:53.032Z,21.90
2023-02-23T05:10:19.867Z,22.73
2023-02-23T05:12:46.977Z,21.33
2023-02-23T05:15:13.817Z,21.30
2023-02-23T05:17:41.964Z,20.77
2023-02-23T05:20:13.532Z,21.03
2023-02-23T05:22:40.955Z,21.10
2023-02-23T05:25:10.119Z,21.27
2023-02-23T05:27:37.211Z,21.27
2023-02-23T05:30:07.823Z,21.13
2023-02-23T05:32:34.985Z,21.83
2023-02-23T05:35:02.610Z,22.03
2023-02-23T05:37:29.520Z,21.87
2023-02-23T05:39:56.357Z,22.93
2023-02-23T05:42:23.189Z,22.43
2023-02-23T05:44:50.046Z,24.00
2023-02-23T05:47:17.063Z,23.17
2023-02-23T05:49:46.136Z,24.40
2023-02-23T05:52:13.160Z,23.50
2023-02-23T05:54:39.946Z,24.88
2023-02-23T05:57:08.294Z,23.93
2023-02-23T05:59:35.186Z,24.25
2023-02-23T06:02:05.893Z,23.93
2023-02-23T06:04:33.330Z,24.97
2023-02-23T06:07:00.194Z,25.07
2023-02-23T06:09:27.257Z,24.43
2023-02-23T06:11:54.141Z,25.20
2023-02-23T06:14:21.086Z,25.83
2023-02-23T06:16:48.864Z,25.75
2023-02-23T06:19:15.920Z,24.73
2023-02-23T06:21:42.830Z,25.80
2023-02-23T06:24:10.326Z,26.50
2023-02-23T06:26:37.143Z,26.00
2023-02-23T06:29:04.076Z,26.50
2023-02-23T06:31:31.396Z,27.33
2023-02-23T06:33:58.688Z,28.00
2023-02-23T06:36:25.541Z,27.17
2023-02-23T06:38:56.549Z,27.63
2023-02-23T06:41:24.114Z,28.20
2023-02-23T06:43:51.964Z,28.58
2023-02-23T06:46:19.708Z,28.65
2023-02-23T06:48:46.922Z,27.45
2023-02-23T06:51:13.830Z,27.30
2023-02-23T06:53:40.741Z,28.80
2023-02-23T06:56:07.975Z,27.43
2023-02-23T06:58:34.777Z,26.60
2023-02-23T07:01:01.827Z,27.33
2023-02-23T07:03:28.607Z,28.20
2023-02-23T07:05:55.470Z,27.40
2023-02-23T07:08:22.361Z,28.67
2023-02-23T07:10:49.254Z,27.42
2023-02-23T07:13:16.468Z,28.52
2023-02-23T07:15:43.594Z,28.20
2023-02-23T07:18:10.458Z,28.88
2023-02-23T07:20:37.679Z,29.30
2023-02-23T07:23:04.542Z,29.93
2023-02-23T07:25:31.579Z,29.90
2023-02-23T07:27:59.129Z,29.23
2023-02-23T07:30:26.108Z,27.17
2023-02-23T07:32:54.001Z,27.50
2023-02-23T07:35:21.205Z,27.65
2023-02-23T07:37:48.139Z,27.65
2023-02-23T07:40:15.132Z,27.45
2023-02-23T07:42:41.976Z,27.45
2023-02-23T07:45:09.790Z,28.00
2023-02-23T07:47:37.653Z,28.60
2023-02-23T07:50:10.358Z,27.80
2023-02-23T07:52:40.048Z,28.48
2023-02-23T07:55:08.701Z,28.65
2023-02-23T07:57:35.754Z,25.40
2023-02-23T08:00:03.008Z,25.17
2023-02-23T08:02:30.000Z,17.08
2023-02-23T08:04:56.836Z,20.20
2023-02-23T08:07:25.815Z,20.97
2023-02-23T08:09:53.686Z,20.00
2023-02-23T08:12:20.636Z,20.67
2023-02-23T08:14:47.477Z,19.87
2023-02-23T08:17:14.341Z,20.37
2023-02-23T08:19:41.240Z,20.90
2023-02-23T08:22:10.142Z,22.58
2023-02-23T08:24:38.531Z,21.98
2023-02-23T08:27:05.469Z,21.92
2023-02-23T08:29:36.390Z,20.73
2023-02-23T08:32:05.118Z,22.67
2023-02-23T08:34:32.349Z,20.10
2023-02-23T08:37:00.076Z,20.05
2023-02-23T08:39:27.151Z,20.98
2023-02-23T08:41:55.462Z,19.27
2023-02-23T08:44:22.319Z,18.83
2023-02-23T08:46:49.260Z,19.08
2023-02-23T08:49:16.441Z,18.50
2023-02-23T08:51:43.301Z,17.92
2023-02-23T08:54:14.549Z,20.52
2023-02-23T08:56:42.341Z,19.42
2023-02-23T08:59:09.867Z,19.45
2023-02-23T09:01:37.246Z,17.80
2023-02-23T09:04:05.592Z,17.85
2023-02-23T09:06:35.139Z,19.73
2023-02-23T09:09:02.194Z,18.03
2023-02-23T09:11:29.388Z,18.98
2023-02-23T09:13:56.216Z,17.65
2023-02-23T09:16:23.123Z,17.88
2023-02-23T09:18:50.127Z,17.63
2023-02-23T09:21:25.346Z,17.48
2023-02-23T09:23:55.969Z,16.92
2023-02-23T09:26:24.424Z,17.75
2023-02-23T09:28:51.682Z,17.35
2023-02-23T09:31:22.846Z,18.80
2023-02-23T09:33:51.982Z,17.30
2023-02-23T09:36:24.740Z,17.38
2023-02-23T09:38:57.036Z,18.58
2023-02-23T09:41:30.167Z,19.42
2023-02-23T09:44:28.785Z,18.67
2023-02-23T09:47:13.803Z,18.75
2023-02-23T09:49:45.722Z,18.95
2023-02-23T09:52:24.037Z,19.15
2023-02-23T09:54:51.531Z,19.15
2023-02-23T09:57:36.612Z,19.38
2023-02-23T10:00:31.529Z,19.48
2023-02-23T10:03:28.146Z,20.10
2023-02-23T10:06:04.348Z,19.58
2023-02-23T10:09:03.451Z,18.90
2023-02-23T10:11:42.124Z,18.20
2023-02-23T10:14:21.513Z,19.08
2023-02-23T10:17:05.870Z,18.23
2023-02-23T10:20:06.271Z,17.80
2023-02-23T10:22:36.290Z,17.65
2023-02-23T10:25:18.058Z,17.77
2023-02-23T10:27:50.669Z,18.50
2023-02-23T10:30:29.590Z,17.90
2023-02-23T10:33:01.552Z,18.05
2023-02-23T10:35:31.254Z,18.83
2023-02-23T10:38:01.114Z,19.17
2023-02-23T10:40:33.156Z,19.90
2023-02-23T10:43:03.908Z,19.65
2023-02-23T10:45:41.373Z,19.48
2023-02-23T10:48:16.812Z,19.83
2023-02-23T10:50:45.724Z,19.98
2023-02-23T10:53:28.406Z,19.42
2023-02-23T10:56:13.248Z,19.83
2023-02-23T10:58:44.484Z,20.60
2023-02-23T11:01:11.433Z,19.38
2023-02-23T11:03:44.162Z,20.17
2023-02-23T11:06:32.892Z,20.27
2023-02-23T11:09:24.859Z,19.50
2023-02-23T11:12:02.764Z,20.45
2023-02-23T11:14:31.916Z,20.45
2023-02-23T11:17:00.565Z,20.25
2023-02-23T11:19:38.605Z,20.50
2023-02-23T11:22:07.883Z,20.55
2023-02-23T11:24:39.943Z,21.73
2023-02-23T11:27:21.120Z,21.23
2023-02-23T11:29:52.414Z,22.13
2023-02-23T11:32:33.886Z,21.80
2023-02-23T11:35:22.331Z,23.30
2023-02-23T11:37:49.994Z,22.13
2023-02-23T11:40:34.883Z,23.00
2023-02-23T11:43:16.451Z,23.50
2023-02-23T11:45:53.791Z,23.45
2023-02-23T11:48:25.273Z,23.00
2023-02-23T11:50:53.469Z,24.65
2023-02-23T11:53:43.001Z,24.35
2023-02-23T11:56:13.231Z,25.52
2023-02-23T11:58:49.846Z,23.05
2023-02-23T12:01:23.557Z,20.95
2023-02-23T12:03:58.467Z,22.60
2023-02-23T12:06:36.978Z,22.73
2023-02-23T12:09:25.749Z,16.23
2023-02-23T12:12:09.872Z,14.35
2023-02-23T12:15:15.730Z,12.80
2023-02-23T12:17:58.427Z,11.43
2023-02-23T12:20:37.998Z,11.65
2023-02-23T12:23:11.294Z,10.43
2023-02-23T12:25:56.805Z,9.80
2023-02-23T12:28:34.405Z,10.23
2023-02-23T12:31:20.282Z,10.43
2023-02-23T12:34:14.479Z,11.20
2023-02-23T12:36:58.179Z,10.18
2023-02-23T12:39:34.985Z,10.65
2023-02-23T12:42:17.859Z,9.80
2023-02-23T12:45:04.033Z,10.65
2023-02-23T12:48:02.967Z,10.00
2023-02-23T12:50:44.270Z,10.30
2023-02-23T12:53:40.090Z,10.65
2023-02-23T12:56:55.392Z,11.25
2023-02-23T12:59:59.286Z,12.43
2023-02-23T13:02:54.868Z,12.15
2023-02-23T13:05:51.195Z,13.10
2023-02-23T13:08:42.483Z,13.18
2023-02-23T13:12:09.316Z,13.73
2023-02-23T13:14:54.010Z,13.95
2023-02-23T13:18:01.626Z,13.88
2023-02-23T13:20:47.900Z,13.98
2023-02-23T13:23:32.219Z,13.48
2023-02-23T13:26:29.780Z,14.00
2023-02-23T13:29:02.544Z,14.30
2023-02-23T13:31:41.338Z,13.52
2023-02-23T13:34:27.830Z,14.00
2023-02-23T13:36:56.377Z,13.57
2023-02-23T13:39:47.779Z,13.73
2023-02-23T13:42:45.347Z,13.00
2023-02-23T13:45:32.722Z,14.02
2023-02-23T13:48:50.491Z,14.07
2023-02-23T13:51:49.472Z,13.52
2023-02-23T13:54:18.294Z,14.18
2023-02-23T13:56:53.046Z,16.50
2023-02-23T13:59:23.971Z,15.95
2023-02-23T14:01:53.990Z,16.17
2023-02-23T14:04:36.004Z,16.52
2023-02-23T14:07:22.083Z,16.20
2023-02-23T14:10:00.854Z,18.27
2023-02-23T14:12:42.380Z,16.58
2023-02-23T14:15:28.033Z,17.90
2023-02-23T14:18:03.141Z,16.65
2023-02-23T14:21:02.803Z,17.42
2023-02-23T14:23:36.896Z,17.65
2023-02-23T14:26:39.614Z,18.08
2023-02-23T14:29:28.249Z,16.45
2023-02-23T14:32:24.675Z,16.83
2023-02-23T14:35:32.746Z,17.40
2023-02-23T14:38:15.635Z,17.63
2023-02-23T14:40:49.248Z,17.90
2023-02-23T14:43:38.239Z,18.17
2023-02-23T14:46:23.280Z,18.35
2023-02-23T14:49:21.507Z,18.60
2023-02-23T14:51:58.476Z,19.10
2023-02-23T14:54:34.540Z,18.13
2023-02-23T14:57:17.688Z,18.43
2023-02-23T14:59:51.747Z,20.07
2023-02-23T15:02:24.266Z,19.38
2023-02-23T15:04:52.120Z,19.63
2023-02-23T15:07:40.646Z,21.17
2023-02-23T15:10:22.408Z,20.00
2023-02-23T15:12:49.467Z,20.50
2023-02-23T15:15:24.939Z,21.05
2023-02-23T15:17:57.861Z,21.58
2023-02-23T15:23:05.793Z,20.48
2023-02-23T15:25:39.340Z,19.77
2023-02-23T15:28:26.312Z,19.98
2023-02-23T15:30:57.008Z,20.60
2023-02-23T15:33:28.183Z,20.88
2023-02-23T15:36:16.405Z,21.45
2023-02-23T15:38:49.500Z,21.23
2023-02-23T15:41:34.786Z,19.77
2023-02-23T15:44:15.919Z,20.83
2023-02-23T15:46:49.994Z,20.30
2023-02-23T15:49:19.365Z,20.75
2023-02-23T15:51:51.592Z,20.83
2023-02-23T15:54:32.472Z,19.43
2023-02-23T15:57:07.072Z,21.02
2023-02-23T15:59:39.351Z,20.25
2023-02-23T16:02:19.488Z,21.27
2023-02-23T16:04:52.679Z,19.80
2023-02-23T16:07:23.142Z,18.38
2023-02-23T16:10:02.805Z,19.50
2023-02-23T16:12:38.669Z,21.40
2023-02-23T16:15:25.096Z,21.00
2023-02-23T16:18:20.257Z,21.25
2023-02-23T16:20:59.002Z,19.97
2023-02-23T16:23:41.532Z,21.10
2023-02-23T16:26:19.424Z,17.15
2023-02-23T16:28:47.119Z,20.73
2023-02-23T16:31:26.977Z,20.20
2023-02-23T16:33:58.692Z,21.33
2023-02-23T16:36:38.594Z,20.00
2023-02-23T16:39:11.913Z,19.03
2023-02-23T16:41:39.113Z,19.77
2023-02-23T16:44:12.956Z,21.57
2023-02-23T16:47:01.581Z,21.03
2023-02-23T16:49:30.196Z,19.10
2023-02-23T16:51:58.432Z,18.60
2023-02-23T16:54:26.362Z,20.67
2023-02-23T16:56:55.847Z,18.27
2023-02-23T16:59:24.137Z,21.00
2023-02-23T17:01:51.244Z,18.90
2023-02-23T17:04:20.563Z,19.27
2023-02-23T17:06:52.835Z,20.47
2023-02-23T17:09:19.622Z,19.00
2023-02-23T17:11:47.087Z,20.07
2023-02-23T17:14:27.959Z,18.83
2023-02-23T17:16:55.036Z,19.40
2023-02-23T17:19:24.450Z,19.07
2023-02-23T17:21:52.707Z,17.17
2023-02-23T17:24:19.510Z,18.20
2023-02-23T17:26:46.390Z,19.07
2023-02-23T17:29:13.166Z,18.80
2023-02-23T17:31:40.653Z,17.38
2023-02-23T17:34:07.850Z,20.40
2023-02-23T17:36:34.700Z,18.93
2023-02-23T17:39:02.382Z,18.87
2023-02-23T17:41:29.229Z,20.33
2023-02-23T17:43:56.062Z,21.77
2023-02-23T17:46:23.930Z,22.73
2023-02-23T17:48:50.985Z,21.23
2023-02-23T17:51:20.021Z,22.40
2023-02-23T17:53:47.528Z,21.77
2023-02-23T17:56:15.973Z,21.73
2023-02-23T17:58:43.133Z,21.00
2023-02-23T18:01:10.040Z,20.67
2023-02-23T18:03:37.747Z,21.00
2023-02-23T18:06:09.172Z,20.63
2023-02-23T18:08:38.144Z,19.67
2023-02-23T18:11:05.628Z,19.80
2023-02-23T18:13:33.787Z,19.20
2023-02-23T18:16:08.119Z,18.77
2023-02-23T18:18:38.499Z,18.30
2023-02-23T18:21:18.896Z,17.63
2023-02-23T18:23:46.275Z,17.53
2023-02-23T18:26:18.428Z,19.07
2023-02-23T18:28:46.507Z,17.03
2023-02-23T18:31:17.503Z,16.80
2023-02-23T18:33:46.148Z,16.57
2023-02-23T18:36:30.288Z,17.50
2023-02-23T18:38:59.152Z,16.25
2023-02-23T18:41:31.183Z,16.17
2023-02-23T18:44:04.732Z,16.03
2023-02-23T18:46:32.385Z,15.70
2023-02-23T18:48:59.490Z,15.47
2023-02-23T18:51:26.766Z,14.60
2023-02-23T18:53:54.174Z,15.17
2023-02-23T18:56:27.160Z,16.43
2023-02-23T18:58:59.121Z,14.67
2023-02-23T19:01:29.752Z,13.83
2023-02-23T19:04:00.356Z,15.30
2023-02-23T19:06:29.073Z,13.77
2023-02-23T19:08:59.426Z,27.27
2023-02-23T19:11:32.308Z,21.60
2023-02-23T19:14:03.756Z,15.47
2023-02-23T19:16:32.284Z,15.63
2023-02-23T19:19:01.050Z,14.63
2023-02-23T19:21:28.221Z,16.50
2023-02-23T19:23:57.722Z,15.30
2023-02-23T19:26:26.000Z,15.60
2023-02-23T19:28:53.565Z,15.57
2023-02-23T19:31:25.794Z,13.67
2023-02-23T19:33:55.932Z,14.20
2023-02-23T19:36:29.661Z,15.03
2023-02-23T19:39:10.807Z,12.73
2023-02-23T19:41:39.770Z,18.73
2023-02-23T19:44:07.224Z,15.43
2023-02-23T19:46:35.167Z,13.67
2023-02-23T19:49:02.826Z,14.23
2023-02-23T19:51:30.296Z,13.73
2023-02-23T19:53:58.674Z,13.53
2023-02-23T19:56:30.219Z,13.20
2023-02-23T19:58:59.487Z,12.93
2023-02-23T20:01:27.780Z,14.53
2023-02-23T20:03:57.282Z,13.67
2023-02-23T20:06:27.629Z,12.73
2023-02-23T20:08:55.199Z,12.67
2023-02-23T20:11:23.373Z,11.93
2023-02-23T20:13:51.287Z,13.03
2023-02-23T20:16:19.146Z,13.40
2023-02-23T20:18:46.975Z,12.20
2023-02-23T20:21:23.119Z,14.57
2023-02-23T20:23:51.424Z,15.40
2023-02-23T20:26:26.473Z,13.43
2023-02-23T20:28:54.642Z,13.00
2023-02-23T20:31:35.230Z,12.03
2023-02-23T20:34:09.857Z,12.33
2023-02-23T20:36:37.416Z,11.13
2023-02-23T20:39:04.631Z,12.27
2023-02-23T20:41:31.971Z,10.77
2023-02-23T20:44:00.779Z,11.83
2023-02-23T20:46:30.661Z,12.00
2023-02-23T20:48:59.200Z,11.73
2023-02-23T20:51:27.109Z,10.53
2023-02-23T20:53:54.095Z,10.77
2023-02-23T20:56:25.509Z,9.40
2023-02-23T20:58:54.221Z,9.60
2023-02-23T21:01:24.063Z,8.03
2023-02-23T21:03:54.031Z,7.40
2023-02-23T21:06:25.086Z,8.03
2023-02-23T21:08:55.578Z,7.37
2023-02-23T21:11:27.866Z,7.57
2023-02-23T21:13:55.418Z,7.63
2023-02-23T21:16:24.340Z,7.03
2023-02-23T21:19:03.841Z,7.40
2023-02-23T21:21:58.090Z,7.60
2023-02-23T21:24:26.120Z,7.83
2023-02-23T21:26:52.947Z,7.73
2023-02-23T21:29:23.627Z,8.13
2023-02-23T21:31:51.265Z,8.27
2023-02-23T21:34:20.920Z,8.10
2023-02-23T21:36:48.367Z,7.80
2023-02-23T21:39:15.234Z,8.57
2023-02-23T21:41:42.003Z,7.83
2023-02-23T21:44:09.017Z,8.97
2023-02-23T21:46:36.580Z,8.17
2023-02-23T21:49:07.252Z,7.83
2023-02-23T21:51:34.636Z,8.10
2023-02-23T21:54:01.612Z,7.90
2023-02-23T21:56:29.467Z,7.60
2023-02-23T21:58:56.782Z,7.77
2023-02-23T22:01:36.770Z,7.90
2023-02-23T22:04:07.602Z,7.87
2023-02-23T22:06:40.929Z,8.00
2023-02-23T22:09:10.926Z,8.07
2023-02-23T22:11:43.762Z,8.43
2023-02-23T22:14:11.289Z,7.53
2023-02-23T22:16:42.037Z,8.37
2023-02-23T22:19:09.396Z,6.80
2023-02-23T22:21:39.449Z,7.00
2023-02-23T22:24:08.016Z,6.67
2023-02-23T22:26:42.379Z,7.37
2023-02-23T22:29:11.201Z,8.07
2023-02-23T22:31:39.694Z,7.33
2023-02-23T22:34:07.266Z,7.17
2023-02-23T22:36:34.866Z,6.97
2023-02-23T22:39:06.216Z,7.60
2023-02-23T22:41:33.101Z,7.67
2023-02-23T22:43:59.868Z,7.53
2023-02-23T22:46:26.774Z,7.00
2023-02-23T22:48:53.623Z,7.33
2023-02-23T22:51:20.931Z,7.37
2023-02-23T22:53:48.128Z,8.43
2023-02-23T22:56:14.985Z,8.80
2023-02-23T22:58:42.339Z,8.67
2023-02-23T23:01:11.650Z,8.60
2023-02-23T23:03:41.178Z,8.03
2023-02-23T23:06:16.460Z,9.00
2023-02-23T23:08:45.656Z,9.13
2023-02-23T23:11:25.853Z,10.30
2023-02-23T23:14:02.777Z,9.97
2023-02-23T23:16:33.532Z,9.43
2023-02-23T23:19:07.816Z,10.80
2023-02-23T23:21:35.736Z,10.27
2023-02-23T23:24:07.754Z,10.93
2023-02-23T23:26:39.614Z,9.87
2023-02-23T23:29:12.773Z,11.63
2023-02-23T23:31:45.800Z,10.30
2023-02-23T23:34:16.317Z,11.43
2023-02-23T23:36:53.078Z,10.50
2023-02-23T23:39:23.678Z,12.13
2023-02-23T23:41:50.942Z,12.23
2023-02-23T23:44:21.356Z,11.87
2023-02-23T23:46:50.755Z,12.03
2023-02-23T23:49:25.426Z,12.93
2023-02-23T23:51:56.218Z,11.70
2023-02-23T23:54:31.749Z,10.43
2023-02-23T23:57:03.559Z,13.37
2023-02-23T23:59:31.989Z,11.50
